createdAt,value
2023-03-12T00:00:55.404Z,-0.63
2023-03-12T00:03:43.620Z,-0.65
2023-03-12T00:06:21.677Z,-0.67
2023-03-12T00:08:58.414Z,-0.71
2023-03-12T00:11:34.899Z,-0.75
2023-03-12T00:14:11.248Z,-0.79
2023-03-12T00:16:47.562Z,-0.81
2023-03-12T00:19:25.006Z,-0.81
2023-03-12T00:22:01.473Z,-0.81
2023-03-12T00:24:38.042Z,-0.79
2023-03-12T00:27:14.308Z,-0.78
2023-03-12T00:29:51.150Z,-0.79
2023-03-12T00:32:28.041Z,-0.83
2023-03-12T00:35:05.445Z,-0.88
2023-03-12T00:37:42.598Z,-0.92
2023-03-12T00:40:20.338Z,-0.95
2023-03-12T00:42:56.592Z,-0.99
2023-03-12T00:45:32.956Z,-1.01
2023-03-12T00:48:09.912Z,-1.04
2023-03-12T00:50:46.330Z,-1.06
2023-03-12T00:53:22.566Z,-1.07
2023-03-12T00:55:59.033Z,-1.06
2023-03-12T00:58:35.282Z,-1.06
2023-03-12T01:01:12.120Z,-1.06
2023-03-12T01:03:49.269Z,-1.07
2023-03-12T01:06:26.750Z,-1.07
2023-03-12T01:09:05.266Z,-1.06
2023-03-12T01:11:42.493Z,-1.05
2023-03-12T01:14:18.913Z,-1.02
2023-03-12T01:16:55.291Z,-0.98
2023-03-12T01:19:31.779Z,-0.93
2023-03-12T01:22:08.604Z,-0.87
2023-03-12T01:24:44.893Z,-0.83
2023-03-12T01:27:21.676Z,-0.79
2023-03-12T01:29:58.424Z,-0.77
2023-03-12T01:32:35.030Z,-0.73
2023-03-12T01:35:13.223Z,-0.71
2023-03-12T01:37:50.418Z,-0.70
2023-03-12T01:40:29.298Z,-0.71
2023-03-12T01:43:31.750Z,-0.73
2023-03-12T01:46:32.420Z,-0.79
2023-03-12T01:49:16.036Z,-0.86
2023-03-12T01:51:58.024Z,-0.94
2023-03-12T01:54:41.796Z,-1.03
2023-03-12T01:57:25.188Z,-1.12
2023-03-12T02:00:09.016Z,-1.21
2023-03-12T02:02:55.067Z,-1.28
2023-03-12T02:05:46.364Z,-1.34
2023-03-12T02:08:24.380Z,-1.41
2023-03-12T02:11:00.752Z,-1.48
2023-03-12T02:13:37.884Z,-1.55
2023-03-12T02:16:14.842Z,-1.60
2023-03-12T02:18:54.062Z,-1.65
2023-03-12T02:21:35.660Z,-1.69
2023-03-12T02:24:25.412Z,-1.73
2023-03-12T02:27:02.845Z,-1.73
2023-03-12T02:29:42.376Z,-1.70
2023-03-12T02:32:29.017Z,-1.70
2023-03-12T02:35:07.518Z,-1.71
2023-03-12T02:37:55.992Z,-1.73
2023-03-12T02:40:40.289Z,-1.74
2023-03-12T02:43:23.002Z,-1.77
2023-03-12T02:46:00.755Z,-1.77
2023-03-12T02:48:37.174Z,-1.76
2023-03-12T02:51:13.990Z,-1.76
2023-03-12T02:53:54.982Z,-1.78
2023-03-12T02:56:33.702Z,-1.79
2023-03-12T02:59:11.630Z,-1.81
2023-03-12T03:01:52.953Z,-1.84
2023-03-12T03:04:31.622Z,-1.87
2023-03-12T03:07:08.908Z,-1.90
2023-03-12T03:09:45.191Z,-1.93
2023-03-12T03:12:22.984Z,-1.96
2023-03-12T03:14:59.460Z,-1.98
2023-03-12T03:17:35.913Z,-2.00
2023-03-12T03:20:15.179Z,-2.01
2023-03-12T03:22:51.397Z,-2.04
2023-03-12T03:25:29.219Z,-2.05
2023-03-12T03:28:06.087Z,-2.06
2023-03-12T03:30:42.531Z,-2.05
2023-03-12T03:33:19.197Z,-2.05
2023-03-12T03:35:55.680Z,-2.04
2023-03-12T03:38:34.723Z,-2.03
2023-03-12T03:41:11.498Z,-2.00
2023-03-12T03:43:50.200Z,-1.97
2023-03-12T03:46:28.229Z,-1.94
2023-03-12T03:49:09.268Z,-1.89
2023-03-12T03:51:46.418Z,-1.85
2023-03-12T03:54:24.831Z,-1.78
2023-03-12T03:57:02.350Z,-1.72
2023-03-12T03:59:38.748Z,-1.64
2023-03-12T04:02:15.118Z,-1.57
2023-03-12T04:04:51.784Z,-1.50
2023-03-12T04:07:29.381Z,-1.43
2023-03-12T04:10:07.107Z,-1.38
2023-03-12T04:12:43.675Z,-1.32
2023-03-12T04:15:21.197Z,-1.27
2023-03-12T04:17:58.054Z,-1.24
2023-03-12T04:20:34.786Z,-1.22
2023-03-12T04:23:12.098Z,-1.20
2023-03-12T04:25:48.527Z,-1.20
2023-03-12T04:28:24.912Z,-1.20
2023-03-12T04:31:08.726Z,-1.20
2023-03-12T04:33:55.870Z,-1.19
2023-03-12T04:36:33.459Z,-1.17
2023-03-12T04:39:10.317Z,-1.13
2023-03-12T04:41:47.241Z,-1.10
2023-03-12T04:44:24.882Z,-1.07
2023-03-12T04:47:01.514Z,-1.07
2023-03-12T04:49:38.927Z,-1.07
2023-03-12T04:52:17.754Z,-1.07
2023-03-12T04:54:54.389Z,-1.06
2023-03-12T04:57:31.185Z,-1.07
2023-03-12T05:00:13.309Z,-1.09
2023-03-12T05:02:50.277Z,-1.12
2023-03-12T05:05:27.753Z,-1.16
2023-03-12T05:08:04.540Z,-1.20
2023-03-12T05:10:45.379Z,-1.23
2023-03-12T05:13:25.463Z,-1.25
2023-03-12T05:16:04.599Z,-1.26
2023-03-12T05:18:41.715Z,-1.27
2023-03-12T05:21:23.229Z,-1.27
2023-03-12T05:24:03.782Z,-1.26
2023-03-12T05:26:41.144Z,-1.24
2023-03-12T05:29:26.449Z,-1.21
2023-03-12T05:32:03.412Z,-1.18
2023-03-12T05:34:39.863Z,-1.15
2023-03-12T05:37:16.878Z,-1.11
2023-03-12T05:39:56.362Z,-1.07
2023-03-12T05:42:33.318Z,-1.01
2023-03-12T05:45:13.620Z,-0.94
2023-03-12T05:47:52.859Z,-0.87
2023-03-12T05:50:29.596Z,-0.76
2023-03-12T05:53:06.449Z,-0.51
2023-03-12T05:55:43.999Z,-0.21
2023-03-12T05:58:20.374Z,0.21
2023-03-12T06:00:57.456Z,0.93
2023-03-12T06:03:34.005Z,1.52
2023-03-12T06:06:11.789Z,2.40
2023-03-12T06:08:49.510Z,3.66
2023-03-12T06:11:26.239Z,4.77
2023-03-12T06:14:02.860Z,5.77
2023-03-12T06:16:39.414Z,6.83
2023-03-12T06:19:17.054Z,7.93
2023-03-12T06:21:56.493Z,8.49
2023-03-12T06:24:33.000Z,8.58
2023-03-12T06:27:12.331Z,9.08
2023-03-12T06:29:48.889Z,9.78
2023-03-12T06:32:26.212Z,10.23
2023-03-12T06:35:04.630Z,10.40
2023-03-12T06:37:41.198Z,10.66
2023-03-12T06:40:19.430Z,11.28
2023-03-12T06:42:55.582Z,11.45
2023-03-12T06:45:32.303Z,10.86
2023-03-12T06:48:09.998Z,9.88
2023-03-12T06:50:46.628Z,8.79
2023-03-12T06:53:25.340Z,7.91
2023-03-12T06:56:02.318Z,7.13
2023-03-12T06:58:38.997Z,6.94
2023-03-12T07:01:15.724Z,7.24
2023-03-12T07:03:52.988Z,6.96
2023-03-12T07:06:31.251Z,6.54
2023-03-12T07:09:08.119Z,6.14
2023-03-12T07:11:44.809Z,5.79
2023-03-12T07:14:21.493Z,5.44
2023-03-12T07:16:59.191Z,5.15
2023-03-12T07:19:36.063Z,4.90
2023-03-12T07:22:13.431Z,4.84
2023-03-12T07:24:51.390Z,5.11
2023-03-12T07:27:28.649Z,5.29
2023-03-12T07:30:06.607Z,5.48
2023-03-12T07:32:43.777Z,6.13
2023-03-12T07:35:20.967Z,6.62
2023-03-12T07:37:57.612Z,6.90
2023-03-12T07:40:34.599Z,7.44
2023-03-12T07:43:12.862Z,8.09
2023-03-12T07:45:52.045Z,8.60
2023-03-12T07:48:28.583Z,9.02
2023-03-12T07:51:05.988Z,9.71
2023-03-12T07:53:43.164Z,10.46
2023-03-12T07:56:20.237Z,10.99
2023-03-12T07:58:58.897Z,11.25
2023-03-12T08:01:36.194Z,10.69
2023-03-12T08:04:13.988Z,9.81
2023-03-12T08:06:50.847Z,9.19
2023-03-12T08:09:27.375Z,8.68
2023-03-12T08:12:03.790Z,8.18
2023-03-12T08:14:41.225Z,8.02
2023-03-12T08:17:17.806Z,7.89
2023-03-12T08:19:54.477Z,8.18
2023-03-12T08:22:31.361Z,8.56
2023-03-12T08:25:10.298Z,8.98
2023-03-12T08:27:47.364Z,9.27
2023-03-12T08:30:24.683Z,9.55
2023-03-12T08:33:01.568Z,9.72
2023-03-12T08:35:38.732Z,9.88
2023-03-12T08:38:15.366Z,10.05
2023-03-12T08:40:58.145Z,10.27
2023-03-12T08:43:35.122Z,10.32
2023-03-12T08:46:12.550Z,10.16
2023-03-12T08:48:49.264Z,9.96
2023-03-12T08:51:26.424Z,9.68
2023-03-12T08:54:02.733Z,9.50
2023-03-12T08:56:42.507Z,9.41
2023-03-12T08:59:20.446Z,9.14
2023-03-12T09:01:57.047Z,8.89
2023-03-12T09:04:33.913Z,8.64
2023-03-12T09:07:10.989Z,8.40
2023-03-12T09:09:48.709Z,8.18
2023-03-12T09:12:25.456Z,7.94
2023-03-12T09:15:04.528Z,7.77
2023-03-12T09:17:42.301Z,7.66
2023-03-12T09:20:19.682Z,7.50
2023-03-12T09:22:56.330Z,7.27
2023-03-12T09:25:33.369Z,7.04
2023-03-12T09:28:10.177Z,6.87
2023-03-12T09:30:47.789Z,6.76
2023-03-12T09:33:24.436Z,6.69
2023-03-12T09:36:05.143Z,6.59
2023-03-12T09:38:42.832Z,6.49
2023-03-12T09:41:30.348Z,6.39
2023-03-12T09:44:21.116Z,6.32
2023-03-12T09:47:02.200Z,6.28
2023-03-12T09:49:47.944Z,6.28
2023-03-12T09:52:33.450Z,6.27
2023-03-12T09:55:18.902Z,6.26
2023-03-12T09:57:57.941Z,6.30
2023-03-12T10:00:37.811Z,6.31
2023-03-12T10:03:54.408Z,6.32
2023-03-12T10:06:40.358Z,6.33
2023-03-12T10:09:41.000Z,6.38
2023-03-12T10:12:36.086Z,6.39
2023-03-12T10:15:39.977Z,6.38
2023-03-12T10:18:40.180Z,6.29
2023-03-12T10:21:33.681Z,6.15
2023-03-12T10:24:40.818Z,6.05
2023-03-12T10:27:20.062Z,6.05
2023-03-12T10:29:58.975Z,6.09
2023-03-12T10:32:45.668Z,6.13
2023-03-12T10:35:26.681Z,6.14
2023-03-12T10:38:08.248Z,6.16
2023-03-12T10:40:45.263Z,6.24
2023-03-12T10:43:21.797Z,6.30
2023-03-12T10:46:10.853Z,6.30
2023-03-12T10:48:47.706Z,6.24
2023-03-12T10:51:24.070Z,6.23
2023-03-12T10:54:00.521Z,6.27
2023-03-12T10:56:53.045Z,6.31
2023-03-12T10:59:35.381Z,6.33
2023-03-12T11:02:37.216Z,6.33
2023-03-12T11:05:30.813Z,6.36
2023-03-12T11:08:24.291Z,6.39
2023-03-12T11:11:02.787Z,6.38
2023-03-12T11:13:42.659Z,6.40
2023-03-12T11:16:32.280Z,6.52
2023-03-12T11:19:13.893Z,6.65
2023-03-12T11:22:02.717Z,6.68
2023-03-12T11:24:55.657Z,6.70
2023-03-12T11:27:45.175Z,6.79
2023-03-12T11:30:30.942Z,6.78
2023-03-12T11:33:10.302Z,6.74
2023-03-12T11:36:05.628Z,6.77
2023-03-12T11:38:51.827Z,6.77
2023-03-12T11:42:06.850Z,6.74
2023-03-12T11:45:00.737Z,6.70
2023-03-12T11:48:09.691Z,6.67
2023-03-12T11:51:04.742Z,6.77
2023-03-12T11:54:07.317Z,6.91
2023-03-12T11:56:50.361Z,7.07
2023-03-12T11:59:53.932Z,7.21
2023-03-12T12:03:09.480Z,7.30
2023-03-12T12:06:00.871Z,7.37
2023-03-12T12:09:06.264Z,7.39
2023-03-12T12:12:04.224Z,7.29
2023-03-12T12:15:14.466Z,7.23
2023-03-12T12:18:11.069Z,7.27
2023-03-12T12:21:04.284Z,7.33
2023-03-12T12:23:59.800Z,7.29
2023-03-12T12:26:45.864Z,7.15
2023-03-12T12:29:37.728Z,7.02
2023-03-12T12:32:18.961Z,6.93
2023-03-12T12:35:19.868Z,6.92
2023-03-12T12:38:04.140Z,6.91
2023-03-12T12:40:47.091Z,6.87
2023-03-12T12:43:33.376Z,6.87
2023-03-12T12:46:16.312Z,6.97
2023-03-12T12:48:57.074Z,7.09
2023-03-12T12:51:41.476Z,7.19
2023-03-12T12:54:33.140Z,7.27
2023-03-12T12:57:19.790Z,7.26
2023-03-12T13:00:22.038Z,7.17
2023-03-12T13:03:01.379Z,7.02
2023-03-12T13:06:02.282Z,6.87
2023-03-12T13:09:15.386Z,6.64
2023-03-12T13:11:52.432Z,6.39
2023-03-12T13:14:46.049Z,6.23
2023-03-12T13:17:35.151Z,6.16
2023-03-12T13:20:22.131Z,6.14
2023-03-12T13:23:31.229Z,6.12
2023-03-12T13:26:22.956Z,6.13
2023-03-12T13:29:37.223Z,6.14
2023-03-12T13:33:14.224Z,6.11
2023-03-12T13:36:24.506Z,6.10
2023-03-12T13:39:19.458Z,6.01
2023-03-12T13:42:00.467Z,5.90
2023-03-12T13:44:42.823Z,5.82
2023-03-12T13:47:33.472Z,5.78
2023-03-12T13:50:18.384Z,5.78
2023-03-12T13:53:08.202Z,5.84
2023-03-12T13:56:02.844Z,5.93
2023-03-12T13:58:55.585Z,6.02
2023-03-12T14:01:40.721Z,6.09
2023-03-12T14:04:24.651Z,6.16
2023-03-12T14:07:31.674Z,6.24
2023-03-12T14:10:30.001Z,6.33
2023-03-12T14:13:35.932Z,6.39
2023-03-12T14:16:29.110Z,6.43
2023-03-12T14:19:08.650Z,6.46
2023-03-12T14:21:50.420Z,6.45
2023-03-12T14:24:35.802Z,6.42
2023-03-12T14:27:23.111Z,6.40
2023-03-12T14:30:11.677Z,6.36
2023-03-12T14:32:51.003Z,6.33
2023-03-12T14:35:34.430Z,6.31
2023-03-12T14:38:17.870Z,6.28
2023-03-12T14:41:02.704Z,6.23
2023-03-12T14:43:40.927Z,6.19
2023-03-12T14:46:25.739Z,6.15
2023-03-12T14:49:02.922Z,6.14
2023-03-12T14:51:44.975Z,6.13
2023-03-12T14:54:26.969Z,6.11
2023-03-12T14:57:03.632Z,6.09
2023-03-12T14:59:40.636Z,6.05
2023-03-12T15:02:23.939Z,6.00
2023-03-12T15:05:06.065Z,5.96
2023-03-12T15:07:41.864Z,5.91
2023-03-12T15:10:29.040Z,5.87
2023-03-12T15:13:07.625Z,5.84
2023-03-12T15:15:51.154Z,5.80
2023-03-12T15:18:32.679Z,5.74
2023-03-12T15:21:09.938Z,5.68
2023-03-12T15:23:49.165Z,5.64
2023-03-12T15:26:38.262Z,5.59
2023-03-12T15:29:28.953Z,5.55
2023-03-12T15:32:17.353Z,5.51
2023-03-12T15:34:56.476Z,5.48
2023-03-12T15:37:41.057Z,5.44
2023-03-12T15:40:31.420Z,5.41
2023-03-12T15:43:16.819Z,5.36
2023-03-12T15:46:02.983Z,5.34
2023-03-12T15:48:41.620Z,5.30
2023-03-12T15:51:35.002Z,5.28
2023-03-12T15:54:29.088Z,5.25
2023-03-12T15:57:27.598Z,5.21
2023-03-12T16:00:28.857Z,5.17
2023-03-12T16:03:16.388Z,5.12
2023-03-12T16:05:54.174Z,5.08
2023-03-12T16:08:41.123Z,5.03
2023-03-12T16:11:24.339Z,4.98
2023-03-12T16:14:08.787Z,4.92
2023-03-12T16:16:45.508Z,4.86
2023-03-12T16:19:24.597Z,4.80
2023-03-12T16:22:00.974Z,4.74
2023-03-12T16:24:37.567Z,4.68
2023-03-12T16:27:31.637Z,4.64
2023-03-12T16:30:16.958Z,4.59
2023-03-12T16:32:53.753Z,4.55
2023-03-12T16:35:32.190Z,4.51
2023-03-12T16:38:10.470Z,4.46
2023-03-12T16:40:51.387Z,4.41
2023-03-12T16:43:30.899Z,4.35
2023-03-12T16:46:11.024Z,4.28
2023-03-12T16:48:51.513Z,4.21
2023-03-12T16:51:28.918Z,4.14
2023-03-12T16:54:11.431Z,4.08
2023-03-12T16:56:51.260Z,4.02
2023-03-12T16:59:33.410Z,3.97
2023-03-12T17:02:19.287Z,3.93
2023-03-12T17:04:56.638Z,3.89
2023-03-12T17:07:34.219Z,3.86
2023-03-12T17:10:16.143Z,3.84
2023-03-12T17:12:53.410Z,3.81
2023-03-12T17:15:34.087Z,3.78
2023-03-12T17:18:14.104Z,3.76
2023-03-12T17:20:52.155Z,3.77
2023-03-12T17:23:32.487Z,3.76
2023-03-12T17:26:09.913Z,3.75
2023-03-12T17:28:46.788Z,3.73
2023-03-12T17:31:24.786Z,3.73
2023-03-12T17:34:04.061Z,3.72
2023-03-12T17:36:43.111Z,3.73
2023-03-12T17:39:20.067Z,3.73
2023-03-12T17:41:56.646Z,3.74
2023-03-12T17:44:36.957Z,3.74
2023-03-12T17:47:13.494Z,3.73
2023-03-12T17:49:50.422Z,3.72
2023-03-12T17:52:27.425Z,3.71
2023-03-12T17:55:04.890Z,3.71
2023-03-12T17:57:41.290Z,3.70
2023-03-12T18:00:23.167Z,3.69
2023-03-12T18:02:59.619Z,3.67
2023-03-12T18:05:39.523Z,3.63
2023-03-12T18:08:16.783Z,3.59
2023-03-12T18:10:53.551Z,3.55
2023-03-12T18:13:30.729Z,3.51
2023-03-12T18:16:08.525Z,3.47
2023-03-12T18:18:45.202Z,3.42
2023-03-12T18:21:21.932Z,3.38
2023-03-12T18:24:02.012Z,3.35
2023-03-12T18:26:45.567Z,3.34
2023-03-12T18:29:22.372Z,3.32
2023-03-12T18:31:59.208Z,3.31
2023-03-12T18:34:36.026Z,3.30
2023-03-12T18:37:12.973Z,3.28
2023-03-12T18:39:49.451Z,3.26
2023-03-12T18:42:26.346Z,3.23
2023-03-12T18:45:03.633Z,3.19
2023-03-12T18:47:40.665Z,3.15
2023-03-12T18:50:18.460Z,3.11
2023-03-12T18:52:55.985Z,3.05
2023-03-12T18:55:32.561Z,3.01
2023-03-12T18:58:09.842Z,2.96
2023-03-12T19:00:47.350Z,2.91
2023-03-12T19:03:26.295Z,2.87
2023-03-12T19:06:13.055Z,2.82
2023-03-12T19:08:50.275Z,2.78
2023-03-12T19:11:27.695Z,2.74
2023-03-12T19:14:05.176Z,2.71
2023-03-12T19:16:42.458Z,2.68
2023-03-12T19:19:22.635Z,2.65
2023-03-12T19:21:59.598Z,2.63
2023-03-12T19:24:36.679Z,2.60
2023-03-12T19:27:13.287Z,2.58
2023-03-12T19:29:50.068Z,2.55
2023-03-12T19:32:33.243Z,2.52
2023-03-12T19:35:19.947Z,2.50
2023-03-12T19:37:58.466Z,2.49
2023-03-12T19:40:35.487Z,2.49
2023-03-12T19:43:12.260Z,2.51
2023-03-12T19:45:52.254Z,2.51
2023-03-12T19:48:29.724Z,2.53
2023-03-12T19:51:12.682Z,2.54
2023-03-12T19:53:49.313Z,2.56
2023-03-12T19:56:26.494Z,2.57
2023-03-12T19:59:03.983Z,2.57
2023-03-12T20:01:42.915Z,2.58
2023-03-12T20:04:20.295Z,2.59
2023-03-12T20:06:57.515Z,2.61
2023-03-12T20:09:35.402Z,2.63
2023-03-12T20:12:13.170Z,2.65
2023-03-12T20:14:53.670Z,2.67
2023-03-12T20:17:31.033Z,2.69
2023-03-12T20:20:11.064Z,2.72
2023-03-12T20:22:48.003Z,2.74
2023-03-12T20:25:25.545Z,2.77
2023-03-12T20:28:03.736Z,2.80
2023-03-12T20:30:41.873Z,2.83
2023-03-12T20:33:19.468Z,2.84
2023-03-12T20:35:58.965Z,2.87
2023-03-12T20:38:36.020Z,2.90
2023-03-12T20:41:17.759Z,2.94
2023-03-12T20:43:57.744Z,2.97
2023-03-12T20:46:34.315Z,2.98
2023-03-12T20:49:11.051Z,3.03
2023-03-12T20:51:47.589Z,3.06
2023-03-12T20:54:23.999Z,3.09
2023-03-12T20:57:00.865Z,3.12
2023-03-12T20:59:37.342Z,3.14
2023-03-12T21:02:16.935Z,3.16
2023-03-12T21:04:54.167Z,3.19
2023-03-12T21:07:30.731Z,3.20
2023-03-12T21:10:09.007Z,3.22
2023-03-12T21:12:48.209Z,3.23
2023-03-12T21:15:25.159Z,3.24
2023-03-12T21:18:01.623Z,3.24
2023-03-12T21:20:39.920Z,3.24
2023-03-12T21:23:16.594Z,3.25
2023-03-12T21:26:01.227Z,3.26
2023-03-12T21:28:37.761Z,3.27
2023-03-12T21:31:17.307Z,3.27
2023-03-12T21:33:58.094Z,3.27
2023-03-12T21:36:36.140Z,3.27
2023-03-12T21:39:12.613Z,3.28
2023-03-12T21:41:48.827Z,3.28
2023-03-12T21:44:25.239Z,3.29
2023-03-12T21:47:01.616Z,3.30
2023-03-12T21:49:39.436Z,3.31
2023-03-12T21:52:15.814Z,3.32
2023-03-12T21:54:52.445Z,3.32
2023-03-12T21:57:30.679Z,3.33
2023-03-12T22:00:12.734Z,3.35
2023-03-12T22:02:50.668Z,3.36
2023-03-12T22:05:26.904Z,3.37
2023-03-12T22:08:03.377Z,3.38
2023-03-12T22:10:39.744Z,3.39
2023-03-12T22:13:16.414Z,3.40
2023-03-12T22:15:58.563Z,3.41
2023-03-12T22:18:36.875Z,3.42
2023-03-12T22:21:20.460Z,3.42
2023-03-12T22:23:58.585Z,3.44
2023-03-12T22:26:35.481Z,3.45
2023-03-12T22:29:13.251Z,3.47
2023-03-12T22:31:50.119Z,3.48
2023-03-12T22:34:26.668Z,3.49
2023-03-12T22:37:02.924Z,3.49
2023-03-12T22:39:41.033Z,3.50
2023-03-12T22:42:17.241Z,3.51
2023-03-12T22:44:53.585Z,3.52
2023-03-12T22:47:30.054Z,3.53
2023-03-12T22:50:07.195Z,3.54
2023-03-12T22:52:44.240Z,3.55
2023-03-12T22:55:20.874Z,3.57
2023-03-12T22:57:57.150Z,3.58
2023-03-12T23:00:33.518Z,3.60
2023-03-12T23:03:10.065Z,3.62
2023-03-12T23:05:46.453Z,3.66
2023-03-12T23:08:23.125Z,3.68
2023-03-12T23:11:02.757Z,3.70
2023-03-12T23:13:44.641Z,3.72
2023-03-12T23:16:25.139Z,3.75
2023-03-12T23:19:01.789Z,3.78
2023-03-12T23:21:38.096Z,3.80
2023-03-12T23:24:15.306Z,3.82
2023-03-12T23:26:51.814Z,3.83
2023-03-12T23:29:28.283Z,3.86
2023-03-12T23:32:04.908Z,3.88
2023-03-12T23:34:41.589Z,3.90
2023-03-12T23:37:18.558Z,3.92
2023-03-12T23:39:55.296Z,3.94
2023-03-12T23:42:32.680Z,3.96
2023-03-12T23:45:12.314Z,3.97
2023-03-12T23:47:48.672Z,3.99
2023-03-12T23:50:25.315Z,4.01
2023-03-12T23:53:01.718Z,4.03
2023-03-12T23:55:38.183Z,4.04
2023-03-12T23:58:14.845Z,4.06
